sensor_id;sensor_type;location;lat;lon;timestamp;P1;durP1;ratioP1;P2;durP2;ratioP2
45792;SDS011;31495;42.740;22.908;2022-09-09T00:03:27;16.55;;;12.73;;
45792;SDS011;31495;42.740;22.908;2022-09-09T00:04:36;19.35;;;10.98;;
45792;SDS011;31495;42.740;22.908;2022-09-09T00:06:00;16.63;;;12.60;;
45792;SDS011;31495;42.740;22.908;2022-09-09T00:08:25;14.95;;;10.93;;
45792;SDS011;31495;42.740;22.908;2022-09-09T00:09:35;15.10;;;11.32;;
45792;SDS011;31495;42.740;22.908;2022-09-09T00:10:44;17.20;;;11.82;;
45792;SDS011;31495;42.740;22.908;2022-09-09T00:13:20;18.85;;;11.35;;
45792;SDS011;31495;42.740;22.908;2022-09-09T00:17:01;13.40;;;11.52;;
45792;SDS011;31495;42.740;22.908;2022-09-09T00:18:13;14.50;;;10.23;;
45792;SDS011;31495;42.740;22.908;2022-09-09T00:19:26;14.43;;;11.27;;
45792;SDS011;31495;42.740;22.908;2022-09-09T00:22:17;18.13;;;10.63;;
45792;SDS011;31495;42.740;22.908;2022-09-09T00:23:27;15.50;;;10.88;;
45792;SDS011;31495;42.740;22.908;2022-09-09T00:24:41;16.92;;;10.05;;
45792;SDS011;31495;42.740;22.908;2022-09-09T00:25:47;15.48;;;10.50;;
45792;SDS011;31495;42.740;22.908;2022-09-09T00:27:41;19.58;;;9.77;;
45792;SDS011;31495;42.740;22.908;2022-09-09T00:30:02;12.77;;;9.13;;
45792;SDS011;31495;42.740;22.908;2022-09-09T00:31:07;13.30;;;10.32;;
45792;SDS011;31495;42.740;22.908;2022-09-09T00:32:14;13.33;;;9.70;;
45792;SDS011;31495;42.740;22.908;2022-09-09T00:33:19;15.93;;;10.30;;
45792;SDS011;31495;42.740;22.908;2022-09-09T00:34:22;15.88;;;11.10;;
45792;SDS011;31495;42.740;22.908;2022-09-09T00:35:25;16.92;;;11.30;;
45792;SDS011;31495;42.740;22.908;2022-09-09T00:36:28;17.20;;;10.95;;
45792;SDS011;31495;42.740;22.908;2022-09-09T00:37:32;17.13;;;11.25;;
45792;SDS011;31495;42.740;22.908;2022-09-09T00:38:35;16.92;;;10.50;;
45792;SDS011;31495;42.740;22.908;2022-09-09T00:39:39;18.35;;;10.98;;
45792;SDS011;31495;42.740;22.908;2022-09-09T00:42:37;15.55;;;11.10;;
45792;SDS011;31495;42.740;22.908;2022-09-09T00:43:41;17.90;;;11.32;;
45792;SDS011;31495;42.740;22.908;2022-09-09T00:44:58;19.40;;;11.13;;
45792;SDS011;31495;42.740;22.908;2022-09-09T00:51:44;15.30;;;12.10;;
45792;SDS011;31495;42.740;22.908;2022-09-09T00:56:46;19.92;;;12.75;;
45792;SDS011;31495;42.740;22.908;2022-09-09T00:57:53;16.90;;;12.43;;
45792;SDS011;31495;42.740;22.908;2022-09-09T00:58:59;20.90;;;13.63;;
45792;SDS011;31495;42.740;22.908;2022-09-09T01:00:30;18.98;;;12.40;;
45792;SDS011;31495;42.740;22.908;2022-09-09T01:01:39;18.20;;;12.95;;
45792;SDS011;31495;42.740;22.908;2022-09-09T01:02:39;15.20;;;13.05;;
45792;SDS011;31495;42.740;22.908;2022-09-09T01:04:44;17.85;;;12.07;;
45792;SDS011;31495;42.740;22.908;2022-09-09T01:05:45;23.70;;;12.63;;
45792;SDS011;31495;42.740;22.908;2022-09-09T01:07:16;21.08;;;12.45;;
45792;SDS011;31495;42.740;22.908;2022-09-09T01:08:30;17.30;;;12.43;;
45792;SDS011;31495;42.740;22.908;2022-09-09T01:09:57;20.98;;;12.68;;
45792;SDS011;31495;42.740;22.908;2022-09-09T01:10:58;24.95;;;12.50;;
45792;SDS011;31495;42.740;22.908;2022-09-09T01:13:28;14.77;;;11.52;;
45792;SDS011;31495;42.740;22.908;2022-09-09T01:15:35;16.95;;;12.57;;
45792;SDS011;31495;42.740;22.908;2022-09-09T01:16:38;24.42;;;13.25;;
45792;SDS011;31495;42.740;22.908;2022-09-09T01:18:44;16.27;;;12.45;;
45792;SDS011;31495;42.740;22.908;2022-09-09T01:22:44;15.63;;;12.05;;
45792;SDS011;31495;42.740;22.908;2022-09-09T01:27:04;17.85;;;13.23;;
45792;SDS011;31495;42.740;22.908;2022-09-09T01:28:08;23.55;;;14.07;;
45792;SDS011;31495;42.740;22.908;2022-09-09T01:29:13;17.40;;;12.88;;
45792;SDS011;31495;42.740;22.908;2022-09-09T01:30:16;24.20;;;11.40;;
45792;SDS011;31495;42.740;22.908;2022-09-09T01:31:19;18.60;;;11.23;;
45792;SDS011;31495;42.740;22.908;2022-09-09T01:33:37;20.13;;;12.25;;
45792;SDS011;31495;42.740;22.908;2022-09-09T01:34:38;19.92;;;12.85;;
45792;SDS011;31495;42.740;22.908;2022-09-09T01:37:58;100.72;;;50.83;;
45792;SDS011;31495;42.740;22.908;2022-09-09T01:38:57;97.03;;;46.47;;
45792;SDS011;31495;42.740;22.908;2022-09-09T01:39:57;46.95;;;26.67;;
45792;SDS011;31495;42.740;22.908;2022-09-09T01:40:56;30.25;;;18.73;;
45792;SDS011;31495;42.740;22.908;2022-09-09T01:41:57;26.48;;;16.42;;
45792;SDS011;31495;42.740;22.908;2022-09-09T01:42:57;26.33;;;16.13;;
45792;SDS011;31495;42.740;22.908;2022-09-09T01:43:56;24.83;;;14.95;;
45792;SDS011;31495;42.740;22.908;2022-09-09T01:44:56;21.02;;;14.55;;
45792;SDS011;31495;42.740;22.908;2022-09-09T01:45:58;20.88;;;14.77;;
45792;SDS011;31495;42.740;22.908;2022-09-09T01:46:59;19.50;;;13.60;;
45792;SDS011;31495;42.740;22.908;2022-09-09T01:47:59;20.63;;;13.13;;
45792;SDS011;31495;42.740;22.908;2022-09-09T01:48:59;22.52;;;15.07;;
45792;SDS011;31495;42.740;22.908;2022-09-09T01:50:01;33.60;;;18.55;;
45792;SDS011;31495;42.740;22.908;2022-09-09T01:51:02;36.58;;;17.50;;
45792;SDS011;31495;42.740;22.908;2022-09-09T01:52:01;20.27;;;13.93;;
45792;SDS011;31495;42.740;22.908;2022-09-09T01:53:01;16.33;;;11.65;;
45792;SDS011;31495;42.740;22.908;2022-09-09T01:54:01;20.77;;;12.68;;
45792;SDS011;31495;42.740;22.908;2022-09-09T01:55:02;17.77;;;11.55;;
45792;SDS011;31495;42.740;22.908;2022-09-09T01:57:28;16.75;;;12.10;;
45792;SDS011;31495;42.740;22.908;2022-09-09T02:00:11;24.40;;;13.88;;
45792;SDS011;31495;42.740;22.908;2022-09-09T02:04:08;21.98;;;12.00;;
45792;SDS011;31495;42.740;22.908;2022-09-09T02:05:27;19.17;;;13.05;;
45792;SDS011;31495;42.740;22.908;2022-09-09T02:06:39;19.30;;;12.52;;
45792;SDS011;31495;42.740;22.908;2022-09-09T02:07:42;21.25;;;13.10;;
45792;SDS011;31495;42.740;22.908;2022-09-09T02:08:49;19.70;;;12.90;;
45792;SDS011;31495;42.740;22.908;2022-09-09T02:09:52;19.05;;;12.95;;
45792;SDS011;31495;42.740;22.908;2022-09-09T02:11:14;21.00;;;13.63;;
45792;SDS011;31495;42.740;22.908;2022-09-09T02:12:16;18.83;;;11.50;;
45792;SDS011;31495;42.740;22.908;2022-09-09T02:13:21;15.00;;;12.20;;
45792;SDS011;31495;42.740;22.908;2022-09-09T02:14:22;19.63;;;12.18;;
45792;SDS011;31495;42.740;22.908;2022-09-09T02:15:30;23.55;;;14.18;;
45792;SDS011;31495;42.740;22.908;2022-09-09T02:16:35;21.67;;;13.13;;
45792;SDS011;31495;42.740;22.908;2022-09-09T02:17:37;21.75;;;12.65;;
45792;SDS011;31495;42.740;22.908;2022-09-09T02:18:42;18.45;;;12.68;;
45792;SDS011;31495;42.740;22.908;2022-09-09T02:19:54;16.42;;;11.98;;
45792;SDS011;31495;42.740;22.908;2022-09-09T02:21:04;17.88;;;13.05;;
45792;SDS011;31495;42.740;22.908;2022-09-09T02:22:05;26.00;;;14.25;;
45792;SDS011;31495;42.740;22.908;2022-09-09T02:23:06;18.83;;;13.00;;
45792;SDS011;31495;42.740;22.908;2022-09-09T02:24:08;20.08;;;12.43;;
45792;SDS011;31495;42.740;22.908;2022-09-09T02:25:10;18.83;;;13.10;;
45792;SDS011;31495;42.740;22.908;2022-09-09T02:26:12;20.48;;;12.68;;
45792;SDS011;31495;42.740;22.908;2022-09-09T02:27:18;18.38;;;12.27;;
45792;SDS011;31495;42.740;22.908;2022-09-09T02:28:21;21.15;;;12.10;;
45792;SDS011;31495;42.740;22.908;2022-09-09T02:29:27;19.98;;;11.68;;
45792;SDS011;31495;42.740;22.908;2022-09-09T02:30:33;17.50;;;13.77;;
45792;SDS011;31495;42.740;22.908;2022-09-09T02:31:36;19.08;;;13.15;;
45792;SDS011;31495;42.740;22.908;2022-09-09T02:32:37;18.23;;;12.20;;
45792;SDS011;31495;42.740;22.908;2022-09-09T02:33:42;17.45;;;11.27;;
45792;SDS011;31495;42.740;22.908;2022-09-09T02:34:45;14.60;;;12.02;;
45792;SDS011;31495;42.740;22.908;2022-09-09T02:35:47;32.13;;;21.27;;
45792;SDS011;31495;42.740;22.908;2022-09-09T02:36:49;29.02;;;22.13;;
45792;SDS011;31495;42.740;22.908;2022-09-09T02:37:53;31.20;;;21.00;;
45792;SDS011;31495;42.740;22.908;2022-09-09T02:38:55;25.55;;;17.75;;
45792;SDS011;31495;42.740;22.908;2022-09-09T02:39:55;26.63;;;15.75;;
45792;SDS011;31495;42.740;22.908;2022-09-09T02:40:54;19.40;;;13.23;;
45792;SDS011;31495;42.740;22.908;2022-09-09T02:41:54;19.67;;;13.75;;
45792;SDS011;31495;42.740;22.908;2022-09-09T02:42:54;21.48;;;13.60;;
45792;SDS011;31495;42.740;22.908;2022-09-09T02:43:54;18.20;;;12.90;;
45792;SDS011;31495;42.740;22.908;2022-09-09T02:44:53;22.77;;;13.55;;
45792;SDS011;31495;42.740;22.908;2022-09-09T02:46:03;18.38;;;14.20;;
45792;SDS011;31495;42.740;22.908;2022-09-09T02:48:14;22.05;;;13.00;;
45792;SDS011;31495;42.740;22.908;2022-09-09T02:49:40;19.50;;;12.23;;
45792;SDS011;31495;42.740;22.908;2022-09-09T02:50:57;21.85;;;12.98;;
45792;SDS011;31495;42.740;22.908;2022-09-09T02:52:06;19.65;;;12.80;;
45792;SDS011;31495;42.740;22.908;2022-09-09T02:55:24;20.23;;;12.55;;
45792;SDS011;31495;42.740;22.908;2022-09-09T02:56:39;16.50;;;12.82;;
45792;SDS011;31495;42.740;22.908;2022-09-09T02:57:44;18.67;;;12.52;;
45792;SDS011;31495;42.740;22.908;2022-09-09T02:58:46;19.98;;;12.18;;
45792;SDS011;31495;42.740;22.908;2022-09-09T02:59:47;16.55;;;12.60;;
45792;SDS011;31495;42.740;22.908;2022-09-09T03:00:49;17.70;;;13.25;;
45792;SDS011;31495;42.740;22.908;2022-09-09T03:01:49;20.73;;;13.05;;
45792;SDS011;31495;42.740;22.908;2022-09-09T03:02:49;20.25;;;12.85;;
45792;SDS011;31495;42.740;22.908;2022-09-09T03:03:48;20.95;;;14.07;;
45792;SDS011;31495;42.740;22.908;2022-09-09T03:04:48;16.33;;;12.15;;
45792;SDS011;31495;42.740;22.908;2022-09-09T03:05:50;22.17;;;12.80;;
45792;SDS011;31495;42.740;22.908;2022-09-09T03:06:50;21.10;;;12.45;;
45792;SDS011;31495;42.740;22.908;2022-09-09T03:07:49;21.10;;;13.10;;
45792;SDS011;31495;42.740;22.908;2022-09-09T03:08:49;19.92;;;14.05;;
45792;SDS011;31495;42.740;22.908;2022-09-09T03:09:49;20.88;;;13.98;;
45792;SDS011;31495;42.740;22.908;2022-09-09T03:10:48;23.20;;;13.35;;
45792;SDS011;31495;42.740;22.908;2022-09-09T03:11:48;17.65;;;13.55;;
45792;SDS011;31495;42.740;22.908;2022-09-09T03:12:48;18.25;;;13.20;;
45792;SDS011;31495;42.740;22.908;2022-09-09T03:13:47;18.50;;;12.70;;
45792;SDS011;31495;42.740;22.908;2022-09-09T03:14:48;18.00;;;12.15;;
45792;SDS011;31495;42.740;22.908;2022-09-09T03:15:47;18.70;;;12.90;;
45792;SDS011;31495;42.740;22.908;2022-09-09T03:16:47;19.40;;;12.50;;
45792;SDS011;31495;42.740;22.908;2022-09-09T03:17:47;16.63;;;11.77;;
45792;SDS011;31495;42.740;22.908;2022-09-09T03:18:47;16.85;;;11.40;;
45792;SDS011;31495;42.740;22.908;2022-09-09T03:19:47;18.75;;;12.23;;
45792;SDS011;31495;42.740;22.908;2022-09-09T03:20:48;21.52;;;12.52;;
45792;SDS011;31495;42.740;22.908;2022-09-09T03:21:48;21.42;;;13.13;;
45792;SDS011;31495;42.740;22.908;2022-09-09T03:22:48;21.45;;;14.55;;
45792;SDS011;31495;42.740;22.908;2022-09-09T03:23:49;17.75;;;12.27;;
45792;SDS011;31495;42.740;22.908;2022-09-09T03:24:48;20.60;;;12.60;;
45792;SDS011;31495;42.740;22.908;2022-09-09T03:25:50;17.75;;;12.77;;
45792;SDS011;31495;42.740;22.908;2022-09-09T03:26:51;18.55;;;13.10;;
45792;SDS011;31495;42.740;22.908;2022-09-09T03:27:51;20.90;;;13.75;;
45792;SDS011;31495;42.740;22.908;2022-09-09T03:28:53;22.67;;;14.35;;
45792;SDS011;31495;42.740;22.908;2022-09-09T03:29:53;24.33;;;12.70;;
45792;SDS011;31495;42.740;22.908;2022-09-09T03:30:57;21.60;;;13.30;;
45792;SDS011;31495;42.740;22.908;2022-09-09T03:31:58;22.70;;;13.00;;
45792;SDS011;31495;42.740;22.908;2022-09-09T03:32:58;21.35;;;13.13;;
45792;SDS011;31495;42.740;22.908;2022-09-09T03:33:58;20.95;;;12.35;;
45792;SDS011;31495;42.740;22.908;2022-09-09T03:34:57;19.85;;;13.75;;
45792;SDS011;31495;42.740;22.908;2022-09-09T03:35:57;21.23;;;13.43;;
45792;SDS011;31495;42.740;22.908;2022-09-09T03:36:57;20.15;;;14.32;;
45792;SDS011;31495;42.740;22.908;2022-09-09T03:37:56;17.75;;;13.50;;
45792;SDS011;31495;42.740;22.908;2022-09-09T03:38:56;18.98;;;13.02;;
45792;SDS011;31495;42.740;22.908;2022-09-09T03:39:55;16.27;;;13.18;;
45792;SDS011;31495;42.740;22.908;2022-09-09T03:40:55;17.92;;;13.05;;
45792;SDS011;31495;42.740;22.908;2022-09-09T03:41:56;17.95;;;13.38;;
45792;SDS011;31495;42.740;22.908;2022-09-09T03:42:56;16.63;;;12.98;;
45792;SDS011;31495;42.740;22.908;2022-09-09T03:43:55;17.05;;;12.70;;
45792;SDS011;31495;42.740;22.908;2022-09-09T03:44:54;19.25;;;12.23;;
45792;SDS011;31495;42.740;22.908;2022-09-09T03:45:56;21.02;;;12.93;;
45792;SDS011;31495;42.740;22.908;2022-09-09T03:46:56;19.55;;;13.10;;
45792;SDS011;31495;42.740;22.908;2022-09-09T03:47:56;23.35;;;13.07;;
45792;SDS011;31495;42.740;22.908;2022-09-09T03:48:56;20.50;;;11.52;;
45792;SDS011;31495;42.740;22.908;2022-09-09T03:49:56;17.33;;;12.48;;
45792;SDS011;31495;42.740;22.908;2022-09-09T03:50:55;21.63;;;13.43;;
45792;SDS011;31495;42.740;22.908;2022-09-09T03:51:57;17.70;;;12.80;;
45792;SDS011;31495;42.740;22.908;2022-09-09T03:52:58;18.67;;;12.77;;
45792;SDS011;31495;42.740;22.908;2022-09-09T03:53:57;23.63;;;13.70;;
45792;SDS011;31495;42.740;22.908;2022-09-09T03:54:57;20.05;;;13.70;;
45792;SDS011;31495;42.740;22.908;2022-09-09T03:55:56;19.17;;;12.70;;
45792;SDS011;31495;42.740;22.908;2022-09-09T03:56:59;20.27;;;13.50;;
45792;SDS011;31495;42.740;22.908;2022-09-09T03:57:58;20.77;;;13.63;;
45792;SDS011;31495;42.740;22.908;2022-09-09T03:58:59;24.50;;;13.05;;
45792;SDS011;31495;42.740;22.908;2022-09-09T03:59:59;18.55;;;13.60;;
45792;SDS011;31495;42.740;22.908;2022-09-09T04:01:01;24.08;;;13.60;;
45792;SDS011;31495;42.740;22.908;2022-09-09T04:02:03;18.25;;;12.23;;
45792;SDS011;31495;42.740;22.908;2022-09-09T04:03:02;18.05;;;13.23;;
45792;SDS011;31495;42.740;22.908;2022-09-09T04:04:02;22.15;;;12.40;;
45792;SDS011;31495;42.740;22.908;2022-09-09T04:05:01;18.08;;;12.32;;
45792;SDS011;31495;42.740;22.908;2022-09-09T04:06:02;27.88;;;14.05;;
45792;SDS011;31495;42.740;22.908;2022-09-09T04:07:03;24.00;;;12.90;;
45792;SDS011;31495;42.740;22.908;2022-09-09T04:08:05;19.10;;;13.07;;
45792;SDS011;31495;42.740;22.908;2022-09-09T04:09:06;20.15;;;13.57;;
45792;SDS011;31495;42.740;22.908;2022-09-09T04:10:05;19.70;;;14.00;;
45792;SDS011;31495;42.740;22.908;2022-09-09T04:11:05;19.88;;;12.75;;
45792;SDS011;31495;42.740;22.908;2022-09-09T04:12:06;18.08;;;13.25;;
45792;SDS011;31495;42.740;22.908;2022-09-09T04:13:06;21.00;;;12.77;;
45792;SDS011;31495;42.740;22.908;2022-09-09T04:14:05;18.42;;;13.10;;
45792;SDS011;31495;42.740;22.908;2022-09-09T04:15:05;29.77;;;14.18;;
45792;SDS011;31495;42.740;22.908;2022-09-09T04:16:05;20.83;;;13.52;;
45792;SDS011;31495;42.740;22.908;2022-09-09T04:17:05;19.42;;;14.07;;
45792;SDS011;31495;42.740;22.908;2022-09-09T04:18:05;19.17;;;14.05;;
45792;SDS011;31495;42.740;22.908;2022-09-09T04:19:05;20.48;;;13.68;;
45792;SDS011;31495;42.740;22.908;2022-09-09T04:20:06;23.15;;;14.80;;
45792;SDS011;31495;42.740;22.908;2022-09-09T04:21:10;20.20;;;14.00;;
45792;SDS011;31495;42.740;22.908;2022-09-09T04:22:11;26.45;;;13.32;;
45792;SDS011;31495;42.740;22.908;2022-09-09T04:23:10;22.27;;;12.77;;
45792;SDS011;31495;42.740;22.908;2022-09-09T04:24:10;22.55;;;13.35;;
45792;SDS011;31495;42.740;22.908;2022-09-09T04:25:10;22.63;;;14.13;;
45792;SDS011;31495;42.740;22.908;2022-09-09T04:26:09;30.45;;;14.45;;
45792;SDS011;31495;42.740;22.908;2022-09-09T04:27:08;19.60;;;14.85;;
45792;SDS011;31495;42.740;22.908;2022-09-09T04:28:08;33.15;;;15.60;;
45792;SDS011;31495;42.740;22.908;2022-09-09T04:29:07;24.15;;;15.82;;
45792;SDS011;31495;42.740;22.908;2022-09-09T04:30:07;24.70;;;14.88;;
45792;SDS011;31495;42.740;22.908;2022-09-09T04:31:09;24.65;;;15.10;;
45792;SDS011;31495;42.740;22.908;2022-09-09T04:32:13;23.63;;;14.65;;
45792;SDS011;31495;42.740;22.908;2022-09-09T04:33:13;23.80;;;15.13;;
45792;SDS011;31495;42.740;22.908;2022-09-09T04:34:13;24.98;;;15.80;;
45792;SDS011;31495;42.740;22.908;2022-09-09T04:35:13;21.67;;;14.25;;
45792;SDS011;31495;42.740;22.908;2022-09-09T04:36:13;24.13;;;14.52;;
45792;SDS011;31495;42.740;22.908;2022-09-09T04:37:13;19.00;;;14.00;;
45792;SDS011;31495;42.740;22.908;2022-09-09T04:38:13;22.45;;;12.65;;
45792;SDS011;31495;42.740;22.908;2022-09-09T04:39:13;21.10;;;14.75;;
45792;SDS011;31495;42.740;22.908;2022-09-09T04:40:13;22.15;;;13.85;;
45792;SDS011;31495;42.740;22.908;2022-09-09T04:41:14;22.83;;;14.32;;
45792;SDS011;31495;42.740;22.908;2022-09-09T04:42:15;19.40;;;13.15;;
45792;SDS011;31495;42.740;22.908;2022-09-09T04:43:16;17.20;;;13.85;;
45792;SDS011;31495;42.740;22.908;2022-09-09T04:44:17;20.95;;;13.20;;
45792;SDS011;31495;42.740;22.908;2022-09-09T04:45:16;22.60;;;14.18;;
45792;SDS011;31495;42.740;22.908;2022-09-09T04:46:17;27.90;;;14.82;;
45792;SDS011;31495;42.740;22.908;2022-09-09T04:47:17;23.13;;;15.52;;
45792;SDS011;31495;42.740;22.908;2022-09-09T04:48:16;21.98;;;14.25;;
45792;SDS011;31495;42.740;22.908;2022-09-09T04:49:16;21.75;;;14.00;;
45792;SDS011;31495;42.740;22.908;2022-09-09T04:50:17;19.23;;;14.45;;
45792;SDS011;31495;42.740;22.908;2022-09-09T04:51:17;29.00;;;15.32;;
45792;SDS011;31495;42.740;22.908;2022-09-09T04:52:16;20.02;;;14.20;;
45792;SDS011;31495;42.740;22.908;2022-09-09T04:53:16;24.27;;;13.65;;
45792;SDS011;31495;42.740;22.908;2022-09-09T04:54:15;19.42;;;14.10;;
45792;SDS011;31495;42.740;22.908;2022-09-09T04:55:15;27.52;;;14.68;;
45792;SDS011;31495;42.740;22.908;2022-09-09T04:56:15;27.70;;;15.55;;
45792;SDS011;31495;42.740;22.908;2022-09-09T04:57:15;23.23;;;14.65;;
45792;SDS011;31495;42.740;22.908;2022-09-09T04:58:15;27.38;;;14.18;;
45792;SDS011;31495;42.740;22.908;2022-09-09T04:59:14;20.90;;;13.57;;
45792;SDS011;31495;42.740;22.908;2022-09-09T05:00:14;18.15;;;12.77;;
45792;SDS011;31495;42.740;22.908;2022-09-09T05:01:18;18.40;;;13.63;;
45792;SDS011;31495;42.740;22.908;2022-09-09T05:02:19;22.42;;;14.00;;
45792;SDS011;31495;42.740;22.908;2022-09-09T05:03:19;21.65;;;13.50;;
45792;SDS011;31495;42.740;22.908;2022-09-09T05:04:18;25.90;;;14.43;;
45792;SDS011;31495;42.740;22.908;2022-09-09T05:05:18;24.27;;;13.40;;
45792;SDS011;31495;42.740;22.908;2022-09-09T05:06:19;18.40;;;13.88;;
45792;SDS011;31495;42.740;22.908;2022-09-09T05:07:20;20.05;;;12.45;;
45792;SDS011;31495;42.740;22.908;2022-09-09T05:08:20;26.77;;;14.43;;
45792;SDS011;31495;42.740;22.908;2022-09-09T05:09:20;19.40;;;13.95;;
45792;SDS011;31495;42.740;22.908;2022-09-09T05:10:19;22.85;;;13.18;;
45792;SDS011;31495;42.740;22.908;2022-09-09T05:11:22;23.80;;;14.60;;
45792;SDS011;31495;42.740;22.908;2022-09-09T05:12:24;18.98;;;13.95;;
45792;SDS011;31495;42.740;22.908;2022-09-09T05:13:25;26.38;;;14.15;;
45792;SDS011;31495;42.740;22.908;2022-09-09T05:14:25;18.90;;;13.60;;
45792;SDS011;31495;42.740;22.908;2022-09-09T05:15:26;17.17;;;13.18;;
45792;SDS011;31495;42.740;22.908;2022-09-09T05:16:25;22.15;;;13.75;;
45792;SDS011;31495;42.740;22.908;2022-09-09T05:17:25;18.20;;;14.10;;
45792;SDS011;31495;42.740;22.908;2022-09-09T05:18:25;20.48;;;13.70;;
45792;SDS011;31495;42.740;22.908;2022-09-09T05:19:24;22.17;;;14.35;;
45792;SDS011;31495;42.740;22.908;2022-09-09T05:20:24;21.90;;;14.65;;
45792;SDS011;31495;42.740;22.908;2022-09-09T05:21:24;20.65;;;15.35;;
45792;SDS011;31495;42.740;22.908;2022-09-09T05:22:27;24.98;;;15.75;;
45792;SDS011;31495;42.740;22.908;2022-09-09T05:23:26;27.13;;;15.07;;
45792;SDS011;31495;42.740;22.908;2022-09-09T05:24:27;20.50;;;15.80;;
45792;SDS011;31495;42.740;22.908;2022-09-09T05:25:26;26.63;;;15.75;;
45792;SDS011;31495;42.740;22.908;2022-09-09T05:26:26;23.92;;;14.88;;
45792;SDS011;31495;42.740;22.908;2022-09-09T05:27:26;21.25;;;15.52;;
45792;SDS011;31495;42.740;22.908;2022-09-09T05:28:26;21.40;;;15.20;;
45792;SDS011;31495;42.740;22.908;2022-09-09T05:29:26;20.48;;;14.80;;
45792;SDS011;31495;42.740;22.908;2022-09-09T05:30:25;21.52;;;14.50;;
45792;SDS011;31495;42.740;22.908;2022-09-09T05:31:25;21.77;;;16.35;;
45792;SDS011;31495;42.740;22.908;2022-09-09T05:32:26;28.30;;;16.98;;
45792;SDS011;31495;42.740;22.908;2022-09-09T05:33:27;21.30;;;15.02;;
45792;SDS011;31495;42.740;22.908;2022-09-09T05:34:26;24.13;;;15.25;;
45792;SDS011;31495;42.740;22.908;2022-09-09T05:35:26;25.15;;;16.83;;
45792;SDS011;31495;42.740;22.908;2022-09-09T05:36:26;20.75;;;14.73;;
45792;SDS011;31495;42.740;22.908;2022-09-09T05:37:25;19.20;;;14.95;;
45792;SDS011;31495;42.740;22.908;2022-09-09T05:38:24;19.60;;;16.55;;
45792;SDS011;31495;42.740;22.908;2022-09-09T05:39:24;24.73;;;14.93;;
45792;SDS011;31495;42.740;22.908;2022-09-09T05:40:24;25.20;;;15.98;;
45792;SDS011;31495;42.740;22.908;2022-09-09T05:41:23;20.35;;;14.55;;
45792;SDS011;31495;42.740;22.908;2022-09-09T05:42:23;24.05;;;16.23;;
45792;SDS011;31495;42.740;22.908;2022-09-09T05:43:23;28.40;;;16.35;;
45792;SDS011;31495;42.740;22.908;2022-09-09T05:44:23;21.60;;;16.08;;
45792;SDS011;31495;42.740;22.908;2022-09-09T05:45:26;24.30;;;14.88;;
45792;SDS011;31495;42.740;22.908;2022-09-09T05:46:26;23.15;;;16.08;;
45792;SDS011;31495;42.740;22.908;2022-09-09T05:47:26;22.17;;;15.00;;
45792;SDS011;31495;42.740;22.908;2022-09-09T05:48:45;26.10;;;15.93;;
45792;SDS011;31495;42.740;22.908;2022-09-09T05:49:46;28.10;;;15.88;;
45792;SDS011;31495;42.740;22.908;2022-09-09T05:50:52;26.92;;;15.63;;
45792;SDS011;31495;42.740;22.908;2022-09-09T05:51:52;22.90;;;14.88;;
45792;SDS011;31495;42.740;22.908;2022-09-09T05:52:54;20.63;;;15.27;;
45792;SDS011;31495;42.740;22.908;2022-09-09T05:53:54;19.67;;;14.82;;
45792;SDS011;31495;42.740;22.908;2022-09-09T05:54:59;27.88;;;16.17;;
45792;SDS011;31495;42.740;22.908;2022-09-09T05:56:09;23.80;;;16.23;;
45792;SDS011;31495;42.740;22.908;2022-09-09T05:57:10;25.27;;;16.15;;
45792;SDS011;31495;42.740;22.908;2022-09-09T05:58:10;21.40;;;15.77;;
45792;SDS011;31495;42.740;22.908;2022-09-09T05:59:10;22.80;;;15.38;;
45792;SDS011;31495;42.740;22.908;2022-09-09T06:00:10;26.85;;;14.73;;
45792;SDS011;31495;42.740;22.908;2022-09-09T06:01:16;24.67;;;15.75;;
45792;SDS011;31495;42.740;22.908;2022-09-09T06:02:17;22.02;;;14.82;;
45792;SDS011;31495;42.740;22.908;2022-09-09T06:03:16;25.10;;;15.15;;
45792;SDS011;31495;42.740;22.908;2022-09-09T06:04:16;27.45;;;15.45;;
45792;SDS011;31495;42.740;22.908;2022-09-09T06:05:15;22.48;;;14.95;;
45792;SDS011;31495;42.740;22.908;2022-09-09T06:06:16;22.45;;;13.80;;
45792;SDS011;31495;42.740;22.908;2022-09-09T06:07:20;18.50;;;14.85;;
45792;SDS011;31495;42.740;22.908;2022-09-09T06:08:19;31.60;;;15.65;;
45792;SDS011;31495;42.740;22.908;2022-09-09T06:09:19;24.95;;;15.35;;
45792;SDS011;31495;42.740;22.908;2022-09-09T06:10:19;23.20;;;14.75;;
45792;SDS011;31495;42.740;22.908;2022-09-09T06:11:22;21.13;;;14.13;;
45792;SDS011;31495;42.740;22.908;2022-09-09T06:12:23;18.90;;;13.55;;
45792;SDS011;31495;42.740;22.908;2022-09-09T06:13:23;26.75;;;16.15;;
45792;SDS011;31495;42.740;22.908;2022-09-09T06:14:23;22.05;;;15.60;;
45792;SDS011;31495;42.740;22.908;2022-09-09T06:15:24;20.88;;;14.80;;
45792;SDS011;31495;42.740;22.908;2022-09-09T06:16:24;29.70;;;16.23;;
45792;SDS011;31495;42.740;22.908;2022-09-09T06:17:25;27.35;;;14.60;;
45792;SDS011;31495;42.740;22.908;2022-09-09T06:18:27;26.30;;;14.25;;
45792;SDS011;31495;42.740;22.908;2022-09-09T06:19:26;26.60;;;15.00;;
45792;SDS011;31495;42.740;22.908;2022-09-09T06:20:26;26.17;;;15.00;;
45792;SDS011;31495;42.740;22.908;2022-09-09T06:21:26;26.27;;;15.38;;
45792;SDS011;31495;42.740;22.908;2022-09-09T06:22:27;29.08;;;16.27;;
45792;SDS011;31495;42.740;22.908;2022-09-09T06:23:27;35.45;;;16.50;;
45792;SDS011;31495;42.740;22.908;2022-09-09T06:24:27;22.95;;;15.20;;
45792;SDS011;31495;42.740;22.908;2022-09-09T06:25:29;26.10;;;15.98;;
45792;SDS011;31495;42.740;22.908;2022-09-09T06:26:32;28.65;;;15.35;;
45792;SDS011;31495;42.740;22.908;2022-09-09T06:27:36;27.83;;;13.98;;
45792;SDS011;31495;42.740;22.908;2022-09-09T06:28:35;23.48;;;15.38;;
45792;SDS011;31495;42.740;22.908;2022-09-09T06:29:36;28.48;;;15.93;;
45792;SDS011;31495;42.740;22.908;2022-09-09T06:30:35;29.08;;;14.25;;
45792;SDS011;31495;42.740;22.908;2022-09-09T06:31:36;27.77;;;13.32;;
45792;SDS011;31495;42.740;22.908;2022-09-09T06:32:36;23.02;;;12.15;;
45792;SDS011;31495;42.740;22.908;2022-09-09T06:33:38;22.60;;;13.23;;
45792;SDS011;31495;42.740;22.908;2022-09-09T06:34:40;31.30;;;14.18;;
45792;SDS011;31495;42.740;22.908;2022-09-09T06:35:40;25.27;;;13.32;;
45792;SDS011;31495;42.740;22.908;2022-09-09T06:36:39;27.05;;;13.07;;
45792;SDS011;31495;42.740;22.908;2022-09-09T06:37:39;21.13;;;14.60;;
45792;SDS011;31495;42.740;22.908;2022-09-09T06:38:38;27.02;;;13.40;;
45792;SDS011;31495;42.740;22.908;2022-09-09T06:39:38;27.70;;;13.02;;
45792;SDS011;31495;42.740;22.908;2022-09-09T06:40:37;27.90;;;14.52;;
45792;SDS011;31495;42.740;22.908;2022-09-09T06:41:37;24.77;;;15.63;;
45792;SDS011;31495;42.740;22.908;2022-09-09T06:42:37;23.55;;;12.82;;
45792;SDS011;31495;42.740;22.908;2022-09-09T06:43:38;24.08;;;13.38;;
45792;SDS011;31495;42.740;22.908;2022-09-09T06:44:37;24.50;;;12.25;;
45792;SDS011;31495;42.740;22.908;2022-09-09T06:45:37;26.52;;;12.20;;